رشت, ایران

11:32 AM IRST on نوامبر 27, 2014 (GMT +0330)
Rasht | Change Station
CLOSE
Current Station
Airport
Location: Rasht,
Elevation: -30 ft
Nearby Weather Stations

Elev -30 ft 37.33 °N, 49.61 °E | Updated 32 minutes ago

Scattered Clouds
ابرهای پراکنده
54 °F
Feels Like 54 °F
N
0
باد متغير باد from شمال

امروز
High -- | Low -- °F
--% Chance of Precip.
دیروز
High -- | Low -- °F
Precip. -- در
7:02 AM 4:55 PM
Waxing Crescent, 27% visible
فشار 30.09 در
ديد 6.2 مايل، ميل (در برابر كيلومتر
ابری Few 2000 ft
ابرهای پراکنده 8000 ft
قطره شبنم 46 °F
رطوبت 77%
بارش باران 0.00 در
برف عمیق Not available.
مادون قرمز 2 out of 12
Pollen Not available.
تمیزی هوا Not available.
Flu Activity Not available.
METAR OIGG 270730Z 00000KT 9999 FEW020 SCT080 12/08 Q1019

More Conditions Fewer Conditions

فشار 30.09 در
ديد 6.2 مايل، ميل (در برابر كيلومتر
ابری Few 2000 ft
ابرهای پراکنده 8000 ft
قطره شبنم 46 °F
رطوبت 77%
بارش باران 0.00 در
برف عمیق Not available.
مادون قرمز 2 out of 12
Pollen Not available.
تمیزی هوا Not available.
Flu Activity Not available.
METAR OIGG 270730Z 00000KT 9999 FEW020 SCT080 12/08 Q1019

More Conditions Fewer Conditions

10-Day Weather Forecast

Almanac

ستاره شناسی

Nov. 27, 2014 Rise Set
وقت حقیقی
تاریک و روشن اجتماعی
تاریک روشن دریایی
شفق و فلق نجومی
ماه
میزان روشنایی روز
طول روز
Tomorrow will be .
, % of the Moon is Illuminated

Today's Extremes

Country Highs Country Lows

Community

WunderPhotos

Upload Photos

1,773,966 photos uploaded!

WunderBlogs® & News

Nearby

تمیزی هوا

  تمیزی هوا AQ Index آلاینده
Not available.

عمق برف

Station Depth Elevation

Earthquake Activity

شهر Distance Mag. Time & Date
Minimum magnitude displayed is 2.5.

Coastal Water Temperatures

منطقه درجه حرارت

Nearby Weather Stations